createdAt,value
2022-11-25T00:00:02.126Z,0.57
2022-11-25T00:02:28.965Z,0.60
2022-11-25T00:04:55.622Z,0.65
2022-11-25T00:07:22.206Z,0.77
2022-11-25T00:09:48.865Z,0.65
2022-11-25T00:12:15.562Z,0.63
2022-11-25T00:14:42.091Z,0.55
2022-11-25T00:17:08.654Z,0.50
2022-11-25T00:19:35.201Z,0.65
2022-11-25T00:22:01.765Z,0.50
2022-11-25T00:24:28.484Z,0.60
2022-11-25T00:26:55.040Z,0.60
2022-11-25T00:29:21.666Z,0.70
2022-11-25T00:31:48.377Z,0.50
2022-11-25T00:34:15.115Z,0.52
2022-11-25T00:36:41.861Z,0.70
2022-11-25T00:39:12.330Z,0.70
2022-11-25T00:41:57.628Z,0.82
2022-11-25T00:44:36.954Z,0.80
2022-11-25T00:47:12.082Z,1.27
2022-11-25T00:49:40.459Z,0.70
2022-11-25T00:52:08.128Z,0.70
2022-11-25T00:54:35.148Z,0.93
2022-11-25T00:57:01.971Z,0.88
2022-11-25T00:59:28.796Z,0.77
2022-11-25T01:01:56.031Z,0.77
2022-11-25T01:04:23.142Z,0.85
2022-11-25T01:06:50.205Z,0.80
2022-11-25T01:09:16.808Z,0.70
2022-11-25T01:11:44.001Z,0.80
2022-11-25T01:14:10.986Z,0.82
2022-11-25T01:16:38.110Z,0.90
2022-11-25T01:19:04.915Z,0.60
2022-11-25T01:21:34.157Z,0.80
2022-11-25T01:24:01.956Z,0.70
2022-11-25T01:26:29.938Z,0.65
2022-11-25T01:28:59.041Z,0.60
2022-11-25T01:31:28.050Z,0.70
2022-11-25T01:33:57.690Z,0.70
2022-11-25T01:36:24.733Z,0.73
2022-11-25T01:38:54.239Z,0.70
2022-11-25T01:41:22.720Z,0.60
2022-11-25T01:44:12.527Z,0.60
2022-11-25T01:46:45.065Z,0.50
2022-11-25T01:49:37.990Z,0.50
2022-11-25T01:52:25.274Z,0.50
2022-11-25T01:55:00.989Z,0.47
2022-11-25T01:57:40.535Z,0.40
2022-11-25T02:00:08.635Z,0.40
2022-11-25T02:02:35.754Z,0.50
2022-11-25T02:05:07.128Z,0.50
2022-11-25T02:07:41.284Z,0.40
2022-11-25T02:10:13.948Z,0.40
2022-11-25T02:12:43.329Z,0.40
2022-11-25T02:15:10.562Z,0.40
2022-11-25T02:17:37.328Z,0.40
2022-11-25T02:20:13.889Z,0.40
2022-11-25T02:22:43.079Z,0.40
2022-11-25T02:25:26.288Z,0.40
2022-11-25T02:27:58.604Z,0.30
2022-11-25T02:30:25.176Z,0.40
2022-11-25T02:32:51.750Z,0.30
2022-11-25T02:35:26.067Z,0.40
2022-11-25T02:38:15.462Z,0.35
2022-11-25T02:40:44.967Z,0.40
2022-11-25T02:43:11.819Z,0.40
2022-11-25T02:46:06.543Z,0.40
2022-11-25T02:49:01.306Z,0.40
2022-11-25T02:51:25.389Z,0.40
2022-11-25T02:53:52.117Z,0.40
2022-11-25T02:56:21.646Z,0.40
2022-11-25T02:58:48.520Z,0.40
2022-11-25T03:01:15.126Z,0.40
2022-11-25T03:03:41.794Z,0.40
2022-11-25T03:06:09.430Z,0.40
2022-11-25T03:08:37.041Z,0.40
2022-11-25T03:11:03.854Z,0.40
2022-11-25T03:13:30.644Z,0.40
2022-11-25T03:15:57.302Z,0.50
2022-11-25T03:18:24.052Z,0.55
2022-11-25T03:20:54.490Z,0.43
2022-11-25T03:23:21.754Z,0.50
2022-11-25T03:25:48.433Z,0.50
2022-11-25T03:28:15.147Z,0.60
2022-11-25T03:30:42.961Z,0.60
2022-11-25T03:33:09.585Z,0.70
2022-11-25T03:35:36.122Z,0.70
2022-11-25T03:38:02.731Z,0.60
2022-11-25T03:40:29.330Z,0.60
2022-11-25T03:42:55.877Z,0.70
2022-11-25T03:45:22.377Z,0.90
2022-11-25T03:47:48.915Z,0.80
2022-11-25T03:50:16.390Z,0.85
2022-11-25T03:52:43.098Z,0.60
2022-11-25T03:55:12.611Z,0.75
2022-11-25T03:57:39.644Z,0.50
2022-11-25T04:00:07.434Z,0.60
2022-11-25T04:02:34.070Z,0.55
2022-11-25T04:05:00.692Z,0.70
2022-11-25T04:07:27.448Z,0.60
2022-11-25T04:09:53.992Z,0.70
2022-11-25T04:12:38.865Z,0.68
2022-11-25T04:15:05.703Z,0.70
2022-11-25T04:17:32.249Z,0.60
2022-11-25T04:19:59.086Z,0.80
2022-11-25T04:22:25.700Z,0.60
2022-11-25T04:24:52.242Z,0.68
2022-11-25T04:27:20.442Z,0.60
2022-11-25T04:29:47.321Z,0.40
2022-11-25T04:32:13.943Z,0.50
2022-11-25T04:34:40.883Z,0.60
2022-11-25T04:37:07.580Z,0.50
2022-11-25T04:39:34.136Z,0.40
2022-11-25T04:42:19.086Z,0.50
2022-11-25T04:45:01.004Z,0.50
2022-11-25T04:47:32.555Z,0.50
2022-11-25T04:49:59.590Z,0.50
2022-11-25T04:52:26.847Z,0.70
2022-11-25T04:54:53.877Z,0.60
2022-11-25T04:57:20.833Z,0.60
2022-11-25T04:59:47.565Z,0.60
2022-11-25T05:02:20.262Z,0.65
2022-11-25T05:04:49.310Z,0.70
2022-11-25T05:07:17.765Z,0.50
2022-11-25T05:09:44.804Z,0.70
2022-11-25T05:12:14.482Z,0.70
2022-11-25T05:14:41.297Z,0.50
2022-11-25T05:17:11.669Z,1.25
2022-11-25T05:19:38.354Z,0.90
2022-11-25T05:22:04.892Z,0.90
2022-11-25T05:24:31.697Z,1.00
2022-11-25T05:26:58.332Z,1.15
2022-11-25T05:29:24.874Z,0.70
2022-11-25T05:31:51.464Z,0.70
2022-11-25T05:34:18.304Z,0.90
2022-11-25T05:36:45.030Z,0.60
2022-11-25T05:39:11.763Z,0.80
2022-11-25T05:41:38.399Z,0.95
2022-11-25T05:44:05.897Z,1.20
2022-11-25T05:46:32.575Z,1.25
2022-11-25T05:48:59.186Z,0.80
2022-11-25T05:51:26.309Z,1.45
2022-11-25T05:53:52.980Z,1.08
2022-11-25T05:56:19.807Z,1.27
2022-11-25T05:58:46.870Z,1.33
2022-11-25T06:01:15.813Z,1.10
2022-11-25T06:03:43.309Z,0.80
2022-11-25T06:06:11.157Z,0.60
2022-11-25T06:08:38.546Z,0.68
2022-11-25T06:11:11.924Z,0.85
2022-11-25T06:13:39.951Z,0.60
2022-11-25T06:16:26.957Z,0.40
2022-11-25T06:18:53.916Z,0.60
2022-11-25T06:21:20.709Z,0.70
2022-11-25T06:23:47.682Z,0.50
2022-11-25T06:26:23.003Z,0.60
2022-11-25T06:28:53.778Z,0.65
2022-11-25T06:31:23.077Z,0.50
2022-11-25T06:33:51.510Z,0.60
2022-11-25T06:36:20.496Z,0.70
2022-11-25T06:38:49.544Z,0.80
2022-11-25T06:41:16.742Z,0.70
2022-11-25T06:43:43.539Z,0.60
2022-11-25T06:46:12.697Z,0.60
2022-11-25T06:48:39.759Z,0.60
2022-11-25T06:51:09.134Z,0.82
2022-11-25T06:53:36.471Z,0.68
2022-11-25T06:56:09.272Z,0.80
2022-11-25T06:58:37.035Z,0.80
2022-11-25T07:01:15.984Z,1.05
2022-11-25T07:03:45.254Z,1.27
2022-11-25T07:06:13.005Z,1.13
2022-11-25T07:08:39.784Z,0.93
2022-11-25T07:11:15.221Z,0.70
2022-11-25T07:13:42.174Z,0.70
2022-11-25T07:16:08.840Z,0.82
2022-11-25T07:18:37.408Z,1.00
2022-11-25T07:21:09.847Z,1.20
2022-11-25T07:23:37.400Z,1.48
2022-11-25T07:26:04.096Z,0.90
2022-11-25T07:28:30.810Z,0.95
2022-11-25T07:31:23.300Z,0.98
2022-11-25T07:34:03.927Z,1.20
2022-11-25T07:36:32.467Z,1.65
2022-11-25T07:39:00.746Z,1.30
2022-11-25T07:41:28.804Z,2.92
2022-11-25T07:44:01.812Z,1.50
2022-11-25T07:46:31.858Z,1.63
2022-11-25T07:49:02.335Z,2.05
2022-11-25T07:51:33.602Z,1.65
2022-11-25T07:54:01.965Z,1.48
2022-11-25T07:56:29.386Z,1.52
2022-11-25T07:58:57.678Z,1.38
2022-11-25T08:01:26.101Z,0.60
2022-11-25T08:03:53.246Z,0.63
2022-11-25T08:06:22.597Z,0.70
2022-11-25T08:08:50.365Z,0.88
2022-11-25T08:11:21.241Z,0.80
2022-11-25T08:13:48.185Z,0.70
2022-11-25T08:16:16.850Z,0.90
2022-11-25T08:18:43.506Z,1.30
2022-11-25T08:21:12.176Z,1.02
2022-11-25T08:23:40.910Z,1.17
2022-11-25T08:26:16.928Z,0.70
2022-11-25T08:28:44.014Z,0.60
2022-11-25T08:31:31.914Z,0.80
2022-11-25T08:33:59.365Z,1.00
2022-11-25T08:36:27.735Z,1.40
2022-11-25T08:38:57.860Z,0.70
2022-11-25T08:41:33.769Z,0.68
2022-11-25T08:44:03.568Z,0.70
2022-11-25T08:46:34.347Z,0.70
2022-11-25T08:49:00.998Z,0.77
2022-11-25T08:51:31.321Z,1.13
2022-11-25T08:53:58.712Z,0.80
2022-11-25T08:56:26.952Z,0.80
2022-11-25T08:58:55.271Z,1.10
2022-11-25T09:01:25.102Z,1.30
2022-11-25T09:03:55.443Z,0.88
2022-11-25T09:06:22.573Z,1.50
2022-11-25T09:08:49.514Z,1.30
2022-11-25T09:11:16.544Z,0.80
2022-11-25T09:13:43.178Z,0.90
2022-11-25T09:16:10.103Z,1.05
2022-11-25T09:18:37.289Z,1.20
2022-11-25T09:21:11.710Z,0.70
2022-11-25T09:23:39.554Z,1.40
2022-11-25T09:26:07.932Z,1.40
2022-11-25T09:28:35.785Z,1.08
2022-11-25T09:31:09.858Z,0.85
2022-11-25T09:33:37.285Z,1.17
2022-11-25T09:36:06.097Z,0.80
2022-11-25T09:38:32.885Z,0.65
2022-11-25T09:41:10.374Z,0.80
2022-11-25T09:44:25.422Z,0.60
2022-11-25T09:47:18.096Z,1.20
2022-11-25T09:50:10.234Z,0.98
2022-11-25T09:52:51.715Z,1.00
2022-11-25T09:55:22.901Z,1.00
2022-11-25T09:58:17.214Z,0.80
2022-11-25T10:00:45.943Z,1.50
2022-11-25T10:03:31.013Z,0.90
2022-11-25T10:06:07.196Z,0.98
2022-11-25T10:09:11.341Z,0.95
2022-11-25T10:11:50.008Z,0.52
2022-11-25T10:14:31.473Z,1.23
2022-11-25T10:17:01.018Z,1.63
2022-11-25T10:19:49.621Z,1.90
2022-11-25T10:22:16.239Z,0.70
2022-11-25T10:24:43.232Z,0.60
2022-11-25T10:27:18.589Z,0.93
2022-11-25T10:29:49.878Z,0.60
2022-11-25T10:32:23.926Z,0.60
2022-11-25T10:34:57.395Z,0.47
2022-11-25T10:37:36.564Z,0.65
2022-11-25T10:40:03.923Z,0.40
2022-11-25T10:42:32.579Z,0.40
2022-11-25T10:44:59.216Z,0.80
2022-11-25T10:47:51.375Z,0.50
2022-11-25T10:50:18.095Z,0.55
2022-11-25T10:52:57.046Z,0.40
2022-11-25T10:55:32.227Z,0.50
2022-11-25T10:57:59.772Z,0.70
2022-11-25T11:00:37.715Z,0.50
2022-11-25T11:03:24.560Z,0.50
2022-11-25T11:05:53.139Z,0.70
2022-11-25T11:08:23.688Z,0.50
2022-11-25T11:11:12.865Z,0.50
2022-11-25T11:13:39.562Z,0.40
2022-11-25T11:16:26.927Z,0.60
2022-11-25T11:18:55.258Z,0.50
2022-11-25T11:21:25.374Z,0.77
2022-11-25T11:23:54.713Z,0.60
2022-11-25T11:26:33.265Z,0.60
2022-11-25T11:29:14.374Z,0.75
2022-11-25T11:31:48.643Z,1.00
2022-11-25T11:34:43.273Z,0.52
2022-11-25T11:37:45.326Z,0.60
2022-11-25T11:40:39.287Z,0.65
2022-11-25T11:43:27.698Z,0.88
2022-11-25T11:46:00.351Z,1.00
2022-11-25T11:48:32.174Z,1.23
2022-11-25T11:51:26.649Z,1.05
2022-11-25T11:54:08.204Z,0.68
2022-11-25T11:56:42.135Z,1.08
2022-11-25T11:59:30.224Z,1.05
2022-11-25T12:01:59.710Z,1.00
2022-11-25T12:04:31.271Z,1.42
2022-11-25T12:07:07.502Z,0.68
2022-11-25T12:09:43.451Z,1.08
2022-11-25T12:12:16.498Z,0.70
2022-11-25T12:14:53.988Z,0.90
2022-11-25T12:17:30.826Z,0.75
2022-11-25T12:20:17.130Z,1.10
2022-11-25T12:22:56.269Z,0.90
2022-11-25T12:25:25.651Z,0.70
2022-11-25T12:28:15.355Z,1.00
2022-11-25T12:31:16.929Z,0.90
2022-11-25T12:33:56.848Z,0.80
2022-11-25T12:36:44.481Z,1.88
2022-11-25T12:39:56.027Z,1.40
2022-11-25T12:42:27.105Z,0.77
2022-11-25T12:44:59.620Z,1.00
2022-11-25T12:47:27.022Z,0.95
2022-11-25T12:49:56.474Z,1.23
2022-11-25T12:52:25.975Z,1.35
2022-11-25T12:55:05.188Z,1.50
2022-11-25T12:57:48.769Z,2.13
2022-11-25T13:00:43.110Z,2.22
2022-11-25T13:03:47.306Z,1.85
2022-11-25T13:06:38.916Z,2.00
2022-11-25T13:09:24.073Z,1.40
2022-11-25T13:11:53.701Z,2.17
2022-11-25T13:15:03.376Z,2.67
2022-11-25T13:17:35.024Z,1.85
2022-11-25T13:20:29.706Z,1.40
2022-11-25T13:23:05.516Z,3.03
2022-11-25T13:25:33.418Z,1.85
2022-11-25T13:28:02.384Z,2.75
2022-11-25T13:30:35.871Z,3.03
2022-11-25T13:33:11.854Z,2.78
2022-11-25T13:35:44.495Z,3.53
2022-11-25T13:38:29.174Z,2.72
2022-11-25T13:41:19.814Z,2.65
2022-11-25T13:44:02.045Z,3.08
2022-11-25T13:46:54.744Z,3.05
2022-11-25T13:49:42.965Z,2.90
2022-11-25T13:52:12.849Z,2.90
2022-11-25T13:54:48.085Z,3.10
2022-11-25T13:57:23.912Z,3.58
2022-11-25T14:00:01.993Z,2.47
2022-11-25T14:02:28.649Z,2.08
2022-11-25T14:05:09.410Z,3.38
2022-11-25T14:07:45.215Z,2.83
2022-11-25T14:10:17.607Z,3.58
2022-11-25T14:13:07.405Z,2.95
2022-11-25T14:15:33.863Z,3.75
2022-11-25T14:18:15.673Z,3.72
2022-11-25T14:20:51.656Z,5.47
2022-11-25T14:23:30.153Z,4.95
2022-11-25T14:26:01.718Z,4.80
2022-11-25T14:28:54.307Z,5.63
2022-11-25T14:31:27.230Z,5.10
2022-11-25T14:34:12.862Z,5.50
2022-11-25T14:36:44.989Z,5.63
2022-11-25T14:39:21.875Z,6.82
2022-11-25T14:41:59.019Z,6.50
2022-11-25T14:44:33.572Z,6.00
2022-11-25T14:47:05.265Z,7.20
2022-11-25T14:50:11.741Z,6.65
2022-11-25T14:52:40.802Z,7.50
2022-11-25T14:55:08.577Z,7.97
2022-11-25T14:57:40.014Z,7.55
2022-11-25T15:00:10.833Z,7.20
2022-11-25T15:02:41.127Z,8.63
2022-11-25T15:05:10.592Z,7.95
2022-11-25T15:07:42.251Z,9.20
2022-11-25T15:10:33.609Z,10.60
2022-11-25T15:13:07.433Z,9.77
2022-11-25T15:15:37.059Z,10.00
2022-11-25T15:18:08.366Z,10.93
2022-11-25T15:20:35.776Z,11.23
2022-11-25T15:23:03.310Z,11.48
2022-11-25T15:25:29.973Z,11.48
2022-11-25T15:27:56.709Z,11.35
2022-11-25T15:30:26.596Z,9.30
2022-11-25T15:32:55.102Z,8.90
2022-11-25T15:35:26.925Z,7.88
2022-11-25T15:37:56.858Z,6.75
2022-11-25T15:40:30.605Z,6.70
2022-11-25T15:43:02.419Z,5.45
2022-11-25T15:45:42.618Z,5.03
2022-11-25T15:48:18.411Z,5.13
2022-11-25T15:50:45.205Z,5.28
2022-11-25T15:53:28.783Z,5.80
2022-11-25T15:56:01.452Z,4.70
2022-11-25T15:58:28.309Z,6.30
2022-11-25T16:01:21.999Z,3.25
2022-11-25T16:03:50.204Z,2.47
2022-11-25T16:06:21.509Z,4.20
2022-11-25T16:08:55.975Z,2.83
2022-11-25T16:11:25.636Z,2.80
2022-11-25T16:13:53.473Z,3.20
2022-11-25T16:16:28.918Z,2.35
2022-11-25T16:19:01.598Z,3.20
2022-11-25T16:21:37.094Z,2.88
2022-11-25T16:24:06.745Z,2.67
2022-11-25T16:26:57.372Z,1.55
2022-11-25T16:29:37.715Z,1.27
2022-11-25T16:32:14.588Z,1.55
2022-11-25T16:34:41.936Z,1.27
2022-11-25T16:37:08.742Z,1.65
2022-11-25T16:39:37.064Z,1.65
2022-11-25T16:42:04.755Z,1.40
2022-11-25T16:44:36.616Z,1.40
2022-11-25T16:47:03.540Z,0.93
2022-11-25T16:49:31.482Z,1.23
2022-11-25T16:51:58.274Z,0.73
2022-11-25T16:54:24.887Z,0.73
2022-11-25T16:56:55.384Z,1.38
2022-11-25T16:59:32.553Z,0.90
2022-11-25T17:02:00.489Z,0.80
2022-11-25T17:04:27.749Z,1.50
2022-11-25T17:07:30.553Z,1.63
2022-11-25T17:09:44.250Z,2.15
2022-11-25T17:12:18.758Z,1.90
2022-11-25T17:14:48.134Z,1.40
2022-11-25T17:17:24.861Z,1.70
2022-11-25T17:19:52.826Z,0.90
2022-11-25T17:22:26.749Z,1.55
2022-11-25T17:24:54.056Z,1.42
2022-11-25T17:27:32.532Z,2.45
2022-11-25T17:30:01.666Z,1.70
2022-11-25T17:32:28.382Z,1.58
2022-11-25T17:34:55.322Z,1.10
2022-11-25T17:37:24.323Z,1.35
2022-11-25T17:39:54.941Z,1.65
2022-11-25T17:42:30.690Z,1.67
2022-11-25T17:44:57.598Z,1.30
2022-11-25T17:47:24.227Z,1.60
2022-11-25T17:49:52.033Z,1.40
2022-11-25T17:52:18.694Z,1.60
2022-11-25T17:54:45.475Z,1.60
2022-11-25T17:57:16.044Z,1.95
2022-11-25T17:59:42.804Z,1.40
2022-11-25T18:02:27.593Z,1.45
2022-11-25T18:04:55.280Z,1.52
2022-11-25T18:07:22.031Z,1.25
2022-11-25T18:09:48.729Z,2.08
2022-11-25T18:12:36.669Z,1.30
2022-11-25T18:15:08.442Z,1.50
2022-11-25T18:17:37.019Z,1.25
2022-11-25T18:20:20.710Z,1.48
2022-11-25T18:22:48.069Z,1.52
2022-11-25T18:25:17.133Z,0.90
2022-11-25T18:27:44.932Z,1.20
2022-11-25T18:30:19.984Z,1.42
2022-11-25T18:32:47.655Z,1.60
2022-11-25T18:35:16.665Z,1.15
2022-11-25T18:37:43.439Z,1.92
2022-11-25T18:40:10.415Z,1.45
2022-11-25T18:42:37.273Z,1.30
2022-11-25T18:45:04.744Z,1.02
2022-11-25T18:47:31.485Z,1.10
2022-11-25T18:49:58.108Z,1.30
2022-11-25T18:52:25.181Z,1.15
2022-11-25T18:54:52.233Z,1.45
2022-11-25T18:57:19.318Z,1.70
2022-11-25T18:59:48.037Z,1.55
2022-11-25T19:02:22.876Z,1.63
2022-11-25T19:04:49.438Z,1.92
2022-11-25T19:07:16.103Z,1.38
2022-11-25T19:09:42.746Z,1.73
2022-11-25T19:12:14.059Z,1.60
2022-11-25T19:14:42.278Z,1.50
2022-11-25T19:17:20.110Z,2.03
2022-11-25T19:19:47.309Z,2.20
2022-11-25T19:22:15.755Z,1.30
2022-11-25T19:24:42.821Z,1.75
2022-11-25T19:27:21.181Z,2.20
2022-11-25T19:29:48.052Z,3.03
2022-11-25T19:32:28.091Z,2.40
2022-11-25T19:35:01.289Z,2.05
2022-11-25T19:37:30.215Z,1.55
2022-11-25T19:39:57.105Z,1.98
2022-11-25T19:42:28.438Z,1.95
2022-11-25T19:44:55.047Z,1.73
2022-11-25T19:47:23.602Z,2.20
2022-11-25T19:49:55.608Z,4.70
2022-11-25T19:52:35.727Z,2.00
2022-11-25T19:55:17.516Z,2.10
2022-11-25T19:57:44.440Z,2.13
2022-11-25T20:00:12.882Z,2.85
2022-11-25T20:02:40.104Z,2.38
2022-11-25T20:05:08.396Z,2.15
2022-11-25T20:07:35.699Z,2.90
2022-11-25T20:10:14.349Z,1.92
2022-11-25T20:12:40.893Z,2.92
2022-11-25T20:15:08.388Z,3.00
2022-11-25T20:17:37.720Z,1.77
2022-11-25T20:20:11.629Z,2.20
2022-11-25T20:22:41.749Z,1.95
2022-11-25T20:25:11.798Z,2.65
2022-11-25T20:27:38.443Z,2.42
2022-11-25T20:30:16.608Z,2.70
2022-11-25T20:32:43.339Z,3.13
2022-11-25T20:35:11.093Z,4.13
2022-11-25T20:37:59.400Z,4.60
2022-11-25T20:40:41.554Z,5.85
2022-11-25T20:43:39.137Z,6.30
2022-11-25T20:46:12.116Z,5.20
2022-11-25T20:48:38.751Z,4.32
2022-11-25T20:51:07.184Z,3.20
2022-11-25T20:53:34.843Z,3.30
2022-11-25T20:56:02.110Z,4.30
2022-11-25T20:58:33.146Z,4.25
2022-11-25T21:00:59.858Z,4.15
2022-11-25T21:03:26.835Z,4.90
2022-11-25T21:05:55.732Z,3.58
2022-11-25T21:08:29.033Z,4.35
2022-11-25T21:10:57.540Z,3.92
2022-11-25T21:13:28.314Z,4.78
2022-11-25T21:15:55.134Z,4.40
2022-11-25T21:18:22.743Z,4.38
2022-11-25T21:20:51.985Z,5.07
2022-11-25T21:23:21.345Z,5.78
2022-11-25T21:25:49.495Z,8.52
2022-11-25T21:28:22.150Z,10.88
2022-11-25T21:30:49.454Z,11.13
2022-11-25T21:33:16.747Z,11.23
2022-11-25T21:35:47.945Z,11.43
2022-11-25T21:38:18.038Z,11.55
2022-11-25T21:40:48.305Z,12.40
2022-11-25T21:43:21.484Z,12.50
2022-11-25T21:45:50.153Z,11.82
2022-11-25T21:48:25.365Z,11.82
2022-11-25T21:50:52.961Z,10.52
2022-11-25T21:53:19.745Z,9.23
2022-11-25T21:55:47.061Z,8.77
2022-11-25T21:58:26.483Z,9.60
2022-11-25T22:01:01.754Z,8.68
2022-11-25T22:03:31.066Z,8.95
2022-11-25T22:05:57.867Z,8.73
2022-11-25T22:08:24.759Z,8.63
2022-11-25T22:10:55.107Z,8.70
2022-11-25T22:13:32.577Z,8.25
2022-11-25T22:15:59.466Z,8.98
2022-11-25T22:18:32.869Z,8.95
2022-11-25T22:20:59.597Z,6.97
2022-11-25T22:23:26.686Z,7.47
2022-11-25T22:25:54.393Z,5.78
2022-11-25T22:28:24.784Z,4.95
2022-11-25T22:31:11.193Z,5.10
2022-11-25T22:33:38.220Z,4.25
2022-11-25T22:36:05.270Z,4.93
2022-11-25T22:38:32.019Z,4.47
2022-11-25T22:41:02.255Z,4.47
2022-11-25T22:43:41.206Z,5.03
2022-11-25T22:46:07.970Z,4.18
2022-11-25T22:48:37.322Z,4.22
2022-11-25T22:51:04.584Z,3.88
2022-11-25T22:53:31.553Z,4.82
2022-11-25T22:55:58.584Z,4.03
2022-11-25T22:58:28.363Z,4.50
2022-11-25T23:00:56.626Z,4.78
2022-11-25T23:03:29.389Z,4.85
2022-11-25T23:05:56.803Z,4.35
2022-11-25T23:08:28.914Z,4.47
2022-11-25T23:10:56.407Z,3.75
2022-11-25T23:13:24.047Z,3.42
2022-11-25T23:15:59.755Z,4.53
2022-11-25T23:18:38.159Z,5.50
2022-11-25T23:21:07.607Z,4.93
2022-11-25T23:23:34.231Z,4.10
2022-11-25T23:26:00.843Z,3.05
2022-11-25T23:28:27.770Z,3.80
2022-11-25T23:30:57.033Z,3.25
2022-11-25T23:33:26.335Z,3.38
2022-11-25T23:35:53.506Z,3.72
2022-11-25T23:38:24.274Z,3.97
2022-11-25T23:40:51.378Z,4.75
2022-11-25T23:43:18.371Z,4.13
2022-11-25T23:45:54.991Z,3.90
2022-11-25T23:48:30.234Z,3.30
2022-11-25T23:50:59.283Z,3.53
2022-11-25T23:53:29.385Z,3.47
2022-11-25T23:55:55.955Z,2.33
2022-11-25T23:58:23.420Z,2.10
